Time;durP1;ratioP1;P1;durP2;ratioP2;P2;SDS_P1;SDS_P2;PMS_P1;PMS_P2;Temp;Humidity;BMP_temperature;BMP_pressure;BME280_temperature;BME280_humidity;BME280_pressure;Samples;Min_cycle;Max_cycle;Signal;HPM_P1;HPM_P2
2023/01/18 00:01:12;;;;;;;3.00;1.23;;;-1.00;99.90;;;;;;6164118;23;20355;-81
2023/01/18 00:03:41;;;;;;;2.60;1.00;;;-1.00;99.90;;;;;;6188863;23;20465;-80
2023/01/18 00:06:10;;;;;;;3.10;1.03;;;-1.00;99.90;;;;;;6164667;23;20051;-83
2023/01/18 00:08:38;;;;;;;2.97;1.37;;;-1.00;99.90;;;;;;6189902;23;20332;-84
2023/01/18 00:11:15;;;;;;;3.80;1.57;;;-1.00;99.90;;;;;;6189890;23;20332;-85
2023/01/18 00:13:43;;;;;;;3.03;1.50;;;-1.00;99.90;;;;;;6189697;23;20078;-82
2023/01/18 00:16:14;;;;;;;3.60;1.77;;;-1.10;99.90;;;;;;6189839;23;20021;-82
2023/01/18 00:18:41;;;;;;;2.43;1.00;;;-1.10;99.90;;;;;;6189631;23;20030;-84
2023/01/18 00:21:10;;;;;;;3.33;1.30;;;-1.00;99.90;;;;;;6164803;23;20028;-83
2023/01/18 00:23:37;;;;;;;3.13;1.20;;;-1.10;99.90;;;;;;6165127;23;20017;-83
2023/01/18 00:26:07;;;;;;;2.30;1.73;;;-1.10;99.90;;;;;;6189676;23;20031;-82
2023/01/18 00:28:34;;;;;;;3.63;1.30;;;-1.10;99.90;;;;;;6189781;23;20469;-80
2023/01/18 00:31:14;;;;;;;3.10;1.23;;;-1.10;99.90;;;;;;6189341;23;20120;-82
2023/01/18 00:33:42;;;;;;;3.67;1.23;;;-1.10;99.90;;;;;;6239070;22;20074;-81
2023/01/18 00:36:11;;;;;;;3.23;1.00;;;-1.10;99.90;;;;;;6188875;23;20020;-82
2023/01/18 00:38:38;;;;;;;2.97;1.43;;;-1.10;99.90;;;;;;6164815;23;20019;-81
2023/01/18 00:41:05;;;;;;;2.87;1.20;;;-1.10;99.90;;;;;;6189248;23;20075;-83
2023/01/18 00:43:38;;;;;;;2.40;0.90;;;-1.10;99.90;;;;;;6214169;23;20050;-83
2023/01/18 00:46:17;;;;;;;3.00;1.17;;;-1.10;99.90;;;;;;6239325;23;20020;-83
2023/01/18 00:48:44;;;;;;;5.13;2.53;;;-1.10;99.90;;;;;;6214192;23;20478;-83
2023/01/18 00:51:14;;;;;;;2.67;1.00;;;-1.20;99.90;;;;;;6214372;23;20017;-83
2023/01/18 00:53:44;;;;;;;3.47;1.10;;;-1.10;99.90;;;;;;6189713;23;20080;-82
2023/01/18 00:56:21;;;;;;;2.57;0.80;;;-1.20;99.90;;;;;;6214184;23;20534;-83
2023/01/18 00:58:49;;;;;;;2.83;1.00;;;-1.20;99.90;;;;;;6165223;23;20099;-83
2023/01/18 01:01:16;;;;;;;2.07;0.90;;;-1.20;99.90;;;;;;6214674;23;20016;-83
2023/01/18 01:06:43;;;;;;;2.17;0.87;;;-1.20;99.90;;;;;;6193003;23;20024;-83
2023/01/18 01:09:16;;;;;;;2.83;1.00;;;-1.20;99.90;;;;;;6167030;23;20040;-82
2023/01/18 01:28:25;;;;;;;2.83;1.03;;;-1.30;99.90;;;;;;6193349;23;20027;-83
2023/01/18 01:30:57;;;;;;;3.83;1.70;;;-1.20;99.90;;;;;;6164423;23;20023;-82
2023/01/18 01:33:25;;;;;;;3.40;1.27;;;-1.20;99.90;;;;;;6213994;23;20039;-83
2023/01/18 01:36:00;;;;;;;3.13;1.50;;;-1.10;99.90;;;;;;6189155;23;20071;-83
2023/01/18 01:38:27;;;;;;;4.10;1.83;;;-1.10;99.90;;;;;;6165288;23;20021;-83
2023/01/18 01:41:25;;;;;;;2.87;1.37;;;-1.10;99.90;;;;;;6164444;23;20028;-83
2023/01/18 01:43:59;;;;;;;4.17;1.50;;;-1.10;99.90;;;;;;6212208;23;20035;-83
2023/01/18 01:46:45;;;;;;;3.00;1.30;;;-1.10;99.90;;;;;;6209485;22;20028;-83
2023/01/18 01:49:18;;;;;;;4.53;1.30;;;-1.10;99.90;;;;;;6245626;22;20016;-84
2023/01/18 01:51:52;;;;;;;3.27;1.50;;;-1.10;99.90;;;;;;6245862;22;20020;-83
2023/01/18 01:54:52;;;;;;;3.07;1.30;;;-1.20;99.90;;;;;;6245788;22;20031;-83
2023/01/18 01:57:36;;;;;;;2.83;1.13;;;-1.20;99.90;;;;;;6245532;22;20062;-83
2023/01/18 02:00:22;;;;;;;3.03;1.17;;;-1.20;99.90;;;;;;6245689;22;20026;-84
2023/01/18 02:03:00;;;;;;;2.27;1.03;;;-1.20;99.90;;;;;;6220142;23;20020;-81
2023/01/18 02:05:29;;;;;;;4.87;1.60;;;-1.20;99.90;;;;;;6219905;23;20028;-81
2023/01/18 02:08:01;;;;;;;4.90;1.77;;;-1.20;99.90;;;;;;6195873;23;20031;-81
2023/01/18 02:10:29;;;;;;;4.10;1.50;;;-1.20;99.90;;;;;;6220211;23;20026;-80
2023/01/18 02:12:57;;;;;;;4.00;1.67;;;-1.20;99.90;;;;;;6220479;22;20016;-80
2023/01/18 02:15:49;;;;;;;4.37;1.93;;;-1.20;99.90;;;;;;6245029;22;20027;-80
2023/01/18 02:18:24;;;;;;;3.43;1.73;;;-1.20;99.90;;;;;;6204769;22;20043;-80
2023/01/18 02:21:19;;;;;;;3.77;1.47;;;-1.20;99.90;;;;;;6245228;22;20016;-81
2023/01/18 02:24:14;;;;;;;3.63;1.60;;;-1.20;99.90;;;;;;6245313;22;20321;-81
2023/01/18 02:27:05;;;;;;;3.57;1.40;;;-1.20;99.90;;;;;;6245212;22;20020;-80
2023/01/18 02:29:54;;;;;;;2.47;1.27;;;-1.20;99.90;;;;;;6220073;22;20026;-80
2023/01/18 02:32:27;;;;;;;3.30;1.13;;;-1.20;99.90;;;;;;6219815;23;20027;-80
2023/01/18 02:35:24;;;;;;;3.93;1.80;;;-1.20;99.90;;;;;;6245015;22;20016;-80
2023/01/18 02:38:25;;;;;;;3.83;1.40;;;-1.20;99.90;;;;;;6215941;22;20099;-80
2023/01/18 02:40:55;;;;;;;4.33;1.63;;;-1.20;99.90;;;;;;6208914;23;20026;-80
2023/01/18 02:46:32;;;;;;;3.97;2.07;;;-1.10;99.90;;;;;;6245265;22;20039;-81
2023/01/18 02:49:10;;;;;;;3.37;1.30;;;-1.10;99.90;;;;;;6198333;22;20658;-80
2023/01/18 02:51:38;;;;;;;3.17;1.50;;;-1.20;99.90;;;;;;6244641;22;20028;-80
2023/01/18 02:54:08;;;;;;;3.07;1.40;;;-1.20;99.90;;;;;;6194355;23;20350;-80
2023/01/18 02:56:35;;;;;;;3.27;1.40;;;-1.20;99.90;;;;;;6219448;22;20467;-80
2023/01/18 02:59:09;;;;;;;4.70;1.60;;;-1.20;99.90;;;;;;6244503;22;20123;-81
2023/01/18 03:01:42;;;;;;;3.40;1.23;;;-1.20;99.90;;;;;;6244499;22;20378;-79
2023/01/18 03:04:15;;;;;;;3.13;1.47;;;-1.20;99.90;;;;;;6244828;22;20031;-80
2023/01/18 03:06:56;;;;;;;4.30;1.43;;;-1.20;99.90;;;;;;6244444;22;20078;-80
2023/01/18 03:09:25;;;;;;;4.43;1.30;;;-1.20;99.90;;;;;;6244641;22;20020;-80
2023/01/18 03:12:08;;;;;;;2.70;1.30;;;-1.30;99.90;;;;;;6219845;22;20047;-80
2023/01/18 03:14:41;;;;;;;2.88;1.20;;;-1.30;99.90;;;;;;6244706;22;20397;-80
2023/01/18 03:17:11;;;;;;;3.70;1.33;;;-1.30;99.90;;;;;;6244416;22;20016;-80
2023/01/18 03:25:41;;;;;;;4.10;1.57;;;-1.40;99.90;;;;;;6244695;22;20062;-79
2023/01/18 03:34:13;;;;;;;4.33;1.33;;;-1.40;99.90;;;;;;6244543;22;20016;-80
2023/01/18 03:36:47;;;;;;;5.27;1.60;;;-1.40;99.90;;;;;;6244424;22;20103;-80
2023/01/18 03:39:27;;;;;;;2.67;1.30;;;-1.40;99.90;;;;;;6244601;22;20054;-80
2023/01/18 03:42:02;;;;;;;2.97;1.27;;;-1.40;99.90;;;;;;6244421;22;20020;-80
2023/01/18 03:44:39;;;;;;;2.93;1.27;;;-1.40;99.90;;;;;;6244439;22;20020;-82
2023/01/18 03:47:06;;;;;;;;;;;-1.40;99.90;;;;;;6214685;23;20020;-81
2023/01/18 03:49:34;;;;;;;3.70;1.37;;;-1.50;99.90;;;;;;6189205;23;19947;-81
2023/01/18 03:52:17;;;;;;;3.37;1.37;;;-1.50;99.90;;;;;;6164739;23;20017;-81
2023/01/18 03:55:02;;;;;;;4.37;1.50;;;-1.50;99.90;;;;;;6214242;23;20020;-81
2023/01/18 03:57:43;;;;;;;2.87;1.17;;;-1.50;99.90;;;;;;6189245;23;20027;-81
2023/01/18 04:00:11;;;;;;;2.53;1.07;;;-1.50;99.90;;;;;;6214110;23;20031;-81
2023/01/18 04:02:39;;;;;;;4.13;1.50;;;-1.50;99.90;;;;;;6164869;23;20020;-80
2023/01/18 04:05:09;;;;;;;4.33;1.43;;;-1.50;99.90;;;;;;6190054;23;20108;-80
2023/01/18 04:07:36;;;;;;;2.80;1.53;;;-1.60;99.90;;;;;;6188539;23;20031;-81
2023/01/18 04:10:03;;;;;;;3.97;1.37;;;-1.60;99.90;;;;;;6188616;23;20469;-81
2023/01/18 04:12:33;;;;;;;3.47;1.30;;;-1.60;99.90;;;;;;6213697;23;20468;-81
2023/01/18 04:15:01;;;;;;;3.00;1.37;;;-1.50;99.90;;;;;;6165137;23;20075;-81
2023/01/18 04:17:28;;;;;;;4.27;1.67;;;-1.60;99.90;;;;;;6188784;23;20027;-81
2023/01/18 04:19:55;;;;;;;3.80;1.80;;;-1.60;99.90;;;;;;6164686;23;20028;-82
2023/01/18 04:22:25;;;;;;;3.47;1.50;;;-1.60;99.90;;;;;;6164020;23;20024;-81
2023/01/18 04:24:55;;;;;;;3.30;1.23;;;-1.60;99.90;;;;;;6163406;23;20378;-81
2023/01/18 04:27:24;;;;;;;3.17;1.27;;;-1.60;99.90;;;;;;6164052;23;20095;-81
2023/01/18 04:29:51;;;;;;;4.07;1.50;;;-1.60;99.90;;;;;;6188628;23;20466;-81
2023/01/18 04:32:20;;;;;;;3.23;1.53;;;-1.40;99.90;;;;;;6165301;23;20035;-81
2023/01/18 04:34:47;;;;;;;3.83;1.73;;;-1.30;99.90;;;;;;6163966;23;20056;-82
2023/01/18 04:37:14;;;;;;;3.13;1.40;;;-1.20;99.90;;;;;;6188628;23;20025;-81
2023/01/18 04:39:41;;;;;;;2.60;1.10;;;-1.10;99.90;;;;;;6139503;23;20031;-82
2023/01/18 04:42:11;;;;;;;3.03;1.40;;;-1.20;99.90;;;;;;6164750;23;20024;-82
2023/01/18 04:44:40;;;;;;;4.00;1.50;;;-1.20;99.90;;;;;;6164686;23;20024;-82
2023/01/18 04:47:07;;;;;;;3.17;1.40;;;-1.20;99.90;;;;;;6164281;23;20025;-82
2023/01/18 04:49:34;;;;;;;3.90;1.57;;;-1.30;99.90;;;;;;6213715;23;20017;-82
2023/01/18 04:52:06;;;;;;;3.03;1.37;;;-1.30;99.90;;;;;;6189314;23;20028;-82
2023/01/18 04:54:33;;;;;;;5.33;1.73;;;-1.30;99.90;;;;;;6188915;23;20351;-82
2023/01/18 04:57:00;;;;;;;2.90;1.27;;;-1.40;99.90;;;;;;6188797;23;20309;-82
2023/01/18 04:59:27;;;;;;;3.53;1.27;;;-1.40;99.90;;;;;;6214420;23;20500;-88
2023/01/18 05:01:54;;;;;;;3.47;1.40;;;-1.50;99.90;;;;;;6165775;23;20017;-88
2023/01/18 05:04:21;;;;;;;4.03;1.53;;;-1.50;99.90;;;;;;6141518;23;20047;-89
2023/01/18 05:06:49;;;;;;;3.30;1.40;;;-1.50;99.90;;;;;;6190146;23;20020;-88
2023/01/18 05:09:17;;;;;;;3.20;1.60;;;-1.60;99.90;;;;;;6189468;23;20020;-88
2023/01/18 05:11:44;;;;;;;4.03;1.30;;;-1.60;99.90;;;;;;6190209;23;20027;-88
2023/01/18 05:14:11;;;;;;;4.27;1.70;;;-1.60;99.90;;;;;;6190065;23;20429;-88
2023/01/18 05:16:38;;;;;;;3.47;1.27;;;-1.60;99.90;;;;;;6166162;23;20016;-88
2023/01/18 05:19:05;;;;;;;3.97;1.53;;;-1.70;99.90;;;;;;6192273;23;20103;-88
2023/01/18 05:21:33;;;;;;;2.70;1.43;;;-1.70;99.90;;;;;;6192590;23;20020;-88
2023/01/18 05:24:00;;;;;;;4.13;1.27;;;-1.70;99.90;;;;;;6168497;23;20021;-88
2023/01/18 05:26:27;;;;;;;3.33;1.50;;;-1.70;99.90;;;;;;6144936;23;20070;-88
2023/01/18 05:28:57;;;;;;;3.10;1.20;;;-1.70;99.90;;;;;;6167960;23;20073;-88
2023/01/18 05:31:25;;;;;;;4.03;1.33;;;-1.70;99.90;;;;;;6168377;23;20024;-88
2023/01/18 05:33:56;;;;;;;5.77;1.83;;;-1.70;99.90;;;;;;6167863;23;20024;-88
2023/01/18 05:36:23;;;;;;;3.13;1.60;;;-1.70;99.90;;;;;;6191863;23;20031;-88
2023/01/18 05:38:50;;;;;;;3.23;1.50;;;-1.70;99.90;;;;;;6167101;23;20036;-87
2023/01/18 05:41:17;;;;;;;3.73;1.60;;;-1.70;99.90;;;;;;6167024;23;20020;-87
2023/01/18 05:43:46;;;;;;;3.23;1.40;;;-1.70;99.90;;;;;;6144295;23;20447;-88
2023/01/18 05:46:14;;;;;;;3.23;1.23;;;-1.70;99.90;;;;;;6142525;23;20420;-88
2023/01/18 05:48:41;;;;;;;3.97;1.60;;;-1.70;99.90;;;;;;6161708;23;20048;-88
2023/01/18 05:51:10;;;;;;;5.70;2.53;;;-1.60;99.90;;;;;;6187503;23;20021;-88
2023/01/18 05:53:38;;;;;;;5.50;2.83;;;-1.60;99.90;;;;;;6188094;23;20068;-88
2023/01/18 05:56:07;;;;;;;4.87;2.83;;;-1.60;99.90;;;;;;6187559;23;20021;-88
2023/01/18 05:58:34;;;;;;;7.77;4.00;;;-1.50;99.90;;;;;;6211541;23;20498;-89
2023/01/18 06:01:01;;;;;;;7.17;3.80;;;-1.50;99.90;;;;;;6211440;23;20079;-89
2023/01/18 06:03:28;;;;;;;6.97;3.53;;;-1.50;99.90;;;;;;6186648;23;20099;-89
2023/01/18 06:05:57;;;;;;;7.40;3.50;;;-1.40;99.90;;;;;;6161660;23;20418;-89
2023/01/18 06:08:24;;;;;;;5.93;3.07;;;-1.40;99.90;;;;;;6187013;23;20091;-88
2023/01/18 06:10:53;;;;;;;5.23;3.03;;;-1.40;99.90;;;;;;6161939;23;20455;-89
2023/01/18 06:13:21;;;;;;;5.50;3.27;;;-1.40;99.90;;;;;;6161665;23;20029;-88
2023/01/18 06:15:50;;;;;;;7.07;3.00;;;-1.40;99.90;;;;;;6186173;23;20021;-89
2023/01/18 06:18:17;;;;;;;4.87;2.90;;;-1.40;99.90;;;;;;6186534;23;20021;-89
2023/01/18 06:20:44;;;;;;;6.93;3.07;;;-1.40;99.90;;;;;;6186882;23;20048;-89
2023/01/18 06:23:11;;;;;;;5.33;2.33;;;-1.40;99.90;;;;;;6186511;23;20425;-89
2023/01/18 06:25:42;;;;;;;4.13;2.10;;;-1.50;99.90;;;;;;6161428;23;20032;-89
2023/01/18 06:28:09;;;;;;;5.97;2.47;;;-1.50;99.90;;;;;;6186450;23;20021;-89
2023/01/18 06:30:36;;;;;;;4.37;2.20;;;-1.50;99.90;;;;;;6185507;23;20025;-89
2023/01/18 06:33:05;;;;;;;4.23;1.90;;;-1.60;99.90;;;;;;6211209;23;20013;-89
2023/01/18 06:35:33;;;;;;;3.80;1.40;;;-1.60;99.90;;;;;;6187206;23;20021;-89
2023/01/18 06:38:02;;;;;;;3.07;2.03;;;-1.60;99.90;;;;;;6187375;23;20080;-89
2023/01/18 06:40:30;;;;;;;3.40;1.77;;;-1.70;99.90;;;;;;6162717;23;20029;-88
2023/01/18 06:42:57;;;;;;;3.70;1.60;;;-1.70;99.90;;;;;;6211367;23;20023;-89
2023/01/18 06:45:25;;;;;;;4.03;1.20;;;-1.70;99.90;;;;;;6211299;23;20021;-89
2023/01/18 06:47:55;;;;;;;2.87;1.20;;;-1.70;99.90;;;;;;6191329;23;20497;-89
2023/01/18 06:50:27;;;;;;;2.70;1.30;;;-1.80;99.90;;;;;;6167091;23;20016;-89
2023/01/18 06:52:55;;;;;;;4.47;1.48;;;-1.80;99.90;;;;;;6168249;23;20024;-89
2023/01/18 06:55:26;;;;;;;2.77;1.40;;;-1.80;99.90;;;;;;6216804;23;20021;-89
2023/01/18 06:57:53;;;;;;;3.17;1.07;;;-1.80;99.90;;;;;;6191292;23;20017;-89
2023/01/18 07:00:21;;;;;;;2.70;1.10;;;-1.80;99.90;;;;;;6167310;23;20016;-89
2023/01/18 07:02:51;;;;;;;2.87;1.40;;;-1.80;99.90;;;;;;6166346;23;20359;-89
2023/01/18 07:05:19;;;;;;;2.20;0.97;;;-1.80;99.90;;;;;;6217040;23;20047;-89
2023/01/18 07:07:47;;;;;;;2.57;1.20;;;-1.90;99.90;;;;;;6167126;23;20099;-89
2023/01/18 07:10:14;;;;;;;3.87;1.67;;;-1.90;99.90;;;;;;6167925;23;20063;-89
2023/01/18 07:12:47;;;;;;;3.90;1.47;;;-1.90;99.90;;;;;;6167885;23;20040;-89
2023/01/18 07:15:16;;;;;;;3.00;1.23;;;-1.90;99.90;;;;;;6192429;23;20027;-88
2023/01/18 07:17:51;;;;;;;2.97;1.23;;;-1.90;99.90;;;;;;6241691;22;20468;-89
2023/01/18 07:20:20;;;;;;;3.40;1.63;;;-1.90;99.90;;;;;;6191983;23;20431;-89
2023/01/18 07:23:01;;;;;;;4.60;1.60;;;-1.90;99.90;;;;;;6192368;23;20024;-89
2023/01/18 07:25:28;;;;;;;3.43;1.30;;;-1.90;99.90;;;;;;6169444;23;20032;-90
2023/01/18 07:27:58;;;;;;;2.97;1.20;;;-2.00;99.90;;;;;;6216394;23;20099;-89
2023/01/18 07:30:25;;;;;;;3.40;1.40;;;-2.00;99.90;;;;;;6165228;23;20064;-89
2023/01/18 07:32:55;;;;;;;3.10;1.23;;;-2.00;99.90;;;;;;6166367;23;20024;-89
2023/01/18 07:35:23;;;;;;;3.10;1.00;;;-2.00;99.90;;;;;;6166950;23;20025;-90
2023/01/18 07:37:51;;;;;;;2.13;1.30;;;-2.00;99.90;;;;;;6216101;23;20024;-89
2023/01/18 07:40:20;;;;;;;2.90;1.13;;;-1.90;99.90;;;;;;6166802;23;20032;-90
2023/01/18 07:42:54;;;;;;;3.57;1.37;;;-2.00;99.90;;;;;;6166904;23;20031;-89
2023/01/18 07:45:25;;;;;;;4.23;1.70;;;-2.00;99.90;;;;;;6215571;23;20020;-89
2023/01/18 07:47:55;;;;;;;2.47;1.40;;;-2.00;99.90;;;;;;6190528;23;20032;-89
2023/01/18 07:50:25;;;;;;;3.53;1.13;;;-1.90;99.90;;;;;;6166591;23;20383;-89
2023/01/18 07:52:55;;;;;;;3.67;1.70;;;-1.90;99.90;;;;;;6166247;23;20501;-89
2023/01/18 07:55:23;;;;;;;3.67;1.50;;;-2.00;99.90;;;;;;6166672;23;20051;-89
2023/01/18 07:57:50;;;;;;;3.67;1.47;;;-1.90;99.90;;;;;;6241199;22;20028;-89
2023/01/18 08:00:18;;;;;;;2.40;1.10;;;-1.90;99.90;;;;;;6190938;23;20027;-88
2023/01/18 08:02:49;;;;;;;3.57;1.90;;;-1.90;99.90;;;;;;6166512;23;20447;-89
2023/01/18 08:05:19;;;;;;;2.83;1.23;;;-1.90;99.90;;;;;;6190212;23;20078;-89
2023/01/18 08:07:47;;;;;;;4.23;1.40;;;-1.90;99.90;;;;;;6166634;23;20043;-89
2023/01/18 08:10:14;;;;;;;4.30;1.07;;;-1.90;99.90;;;;;;6165747;23;20510;-89
2023/01/18 08:12:41;;;;;;;3.63;1.50;;;-1.90;99.90;;;;;;6190513;23;20075;-89
2023/01/18 08:15:09;;;;;;;5.90;1.87;;;-1.90;99.90;;;;;;6190620;23;20063;-90
2023/01/18 08:17:36;;;;;;;4.53;1.60;;;-1.90;99.90;;;;;;6166159;23;20027;-88
2023/01/18 08:20:08;;;;;;;3.13;1.40;;;-1.80;99.90;;;;;;6215865;23;20017;-89
2023/01/18 08:22:35;;;;;;;2.75;1.23;;;-1.80;99.90;;;;;;6166388;23;20016;-88
2023/01/18 08:25:03;;;;;;;3.70;1.40;;;-1.80;99.90;;;;;;6191529;23;20100;-89
2023/01/18 08:27:30;;;;;;;3.97;1.30;;;-1.80;99.90;;;;;;6166230;23;20044;-87
2023/01/18 08:29:57;;;;;;;3.40;1.07;;;-1.80;99.90;;;;;;6165768;23;20020;-88
2023/01/18 08:32:24;;;;;;;2.80;1.43;;;-1.80;99.90;;;;;;6165802;23;20017;-89
2023/01/18 08:34:54;;;;;;;3.47;1.23;;;-1.80;99.90;;;;;;6166716;23;20024;-92
2023/01/18 08:37:22;;;;;;;2.77;1.27;;;-1.80;99.90;;;;;;6215703;23;20404;-92
2023/01/18 08:39:50;;;;;;;3.30;1.10;;;-1.80;99.90;;;;;;6216251;23;20040;-93
2023/01/18 08:42:17;;;;;;;2.83;1.30;;;-1.80;99.90;;;;;;6216086;23;20104;-92
2023/01/18 08:44:47;;;;;;;3.47;1.23;;;-1.80;99.90;;;;;;6216383;23;20025;-92
2023/01/18 08:47:14;;;;;;;3.30;1.40;;;-1.80;99.90;;;;;;6191473;23;20444;-92
2023/01/18 08:49:42;;;;;;;3.10;1.20;;;-1.70;99.90;;;;;;6216225;23;20024;-86
2023/01/18 08:52:18;;;;;;;2.60;0.90;;;-1.70;99.90;;;;;;6191760;23;20026;-93
2023/01/18 08:54:45;;;;;;;4.97;1.37;;;-1.70;99.90;;;;;;6218994;23;20017;-92
2023/01/18 08:57:13;;;;;;;6.40;2.87;;;-1.70;99.90;;;;;;6220054;23;20030;-91
2023/01/18 08:59:40;;;;;;;6.50;2.90;;;-1.60;99.90;;;;;;6168865;23;20016;-91
2023/01/18 09:02:09;;;;;;;5.83;2.47;;;-1.50;99.90;;;;;;6193453;23;20099;-85
2023/01/18 09:04:36;;;;;;;4.60;2.33;;;-1.50;99.90;;;;;;6216546;23;20026;-84
2023/01/18 09:07:04;;;;;;;9.73;4.33;;;-1.40;99.90;;;;;;6191773;23;20055;-85
2023/01/18 09:09:31;;;;;;;8.10;4.37;;;-1.30;99.90;;;;;;6191878;23;20030;-86
2023/01/18 09:11:58;;;;;;;8.97;4.40;;;-1.20;99.90;;;;;;6193920;23;20020;-91
2023/01/18 09:14:25;;;;;;;9.70;6.00;;;-1.10;99.90;;;;;;6193704;23;20020;-87
2023/01/18 09:16:55;;;;;;;9.93;6.27;;;-1.10;99.90;;;;;;6193721;23;20024;-94
2023/01/18 09:19:28;;;;;;;9.27;5.33;;;-1.00;99.90;;;;;;6170599;23;20024;-94
2023/01/18 09:21:57;;;;;;;11.80;6.87;;;-0.90;99.90;;;;;;6193370;23;20020;-91
2023/01/18 09:24:25;;;;;;;12.93;7.50;;;-0.90;99.90;;;;;;6193898;23;20025;-91
2023/01/18 09:26:55;;;;;;;12.10;6.80;;;-0.80;99.90;;;;;;6220433;23;20040;-91
2023/01/18 09:29:25;;;;;;;11.10;7.30;;;-0.80;99.90;;;;;;6193495;23;20455;-92
2023/01/18 09:31:56;;;;;;;10.47;6.93;;;-0.70;99.90;;;;;;6218723;23;20021;-92
2023/01/18 09:34:23;;;;;;;11.00;6.30;;;-0.70;99.90;;;;;;6192965;23;20071;-92
2023/01/18 09:36:51;;;;;;;14.30;7.63;;;-0.60;99.90;;;;;;6193397;23;20107;-92
2023/01/18 09:39:20;;;;;;;9.80;5.80;;;-0.60;99.90;;;;;;6218234;23;20021;-93
2023/01/18 09:41:53;;;;;;;10.60;6.03;;;-0.50;99.90;;;;;;6194262;23;20021;-92
2023/01/18 09:44:38;;;;;;;11.07;6.13;;;-0.50;99.90;;;;;;6193076;23;20020;-93
2023/01/18 09:47:27;;;;;;;9.57;5.37;;;-0.40;99.90;;;;;;6186023;23;20021;-85
2023/01/18 09:49:56;;;;;;;9.87;5.30;;;-0.30;99.90;;;;;;6185756;23;20029;-84
2023/01/18 09:52:48;;;;;;;10.20;5.50;;;-0.10;99.90;;;;;;6185981;23;20067;-84
2023/01/18 09:55:32;;;;;;;8.63;4.43;;;0.10;99.90;;;;;;6211107;23;20024;-87
2023/01/18 09:58:08;;;;;;;8.93;4.80;;;0.20;99.90;;;;;;6212074;23;20108;-91
2023/01/18 10:00:41;;;;;;;8.83;5.73;;;0.20;99.90;;;;;;6187594;23;20029;-91
2023/01/18 10:03:14;;;;;;;8.37;5.80;;;0.20;99.90;;;;;;6188353;23;20049;-93
2023/01/18 10:06:10;;;;;;;9.18;4.95;;;0.30;99.90;;;;;;6212736;23;20051;-90
2023/01/18 10:09:09;;;;;;;8.50;4.33;;;0.40;99.90;;;;;;6187561;23;20032;-88
2023/01/18 10:11:55;;;;;;;7.63;4.30;;;0.50;99.80;;;;;;6211788;23;20017;-88
2023/01/18 10:14:50;;;;;;;9.07;5.60;;;0.60;99.80;;;;;;6186393;23;20017;-88
2023/01/18 10:17:21;;;;;;;10.10;6.40;;;0.60;99.70;;;;;;6211037;23;20021;-88
2023/01/18 10:19:49;;;;;;;8.23;5.23;;;0.60;99.60;;;;;;6186875;23;20037;-88
2023/01/18 10:22:52;;;;;;;9.03;5.17;;;0.60;99.60;;;;;;6161814;23;20272;-88
2023/01/18 10:25:34;;;;;;;7.60;5.03;;;0.60;99.60;;;;;;6113564;23;20025;-88
2023/01/18 10:28:07;;;;;;;10.67;5.50;;;0.60;99.70;;;;;;6211625;23;20079;-88
2023/01/18 10:30:37;;;;;;;9.97;6.07;;;0.60;99.70;;;;;;6211525;23;20017;-88
2023/01/18 10:33:26;;;;;;;9.20;6.40;;;0.70;99.70;;;;;;6211739;23;20017;-88
2023/01/18 10:35:59;;;;;;;11.63;7.57;;;0.80;99.60;;;;;;6186131;23;20021;-88
2023/01/18 10:38:29;;;;;;;12.60;8.03;;;0.90;99.50;;;;;;6211579;23;20028;-88
2023/01/18 10:40:59;;;;;;;12.67;7.33;;;1.00;99.40;;;;;;6211187;23;20031;-88
2023/01/18 10:43:28;;;;;;;11.43;6.53;;;1.10;99.30;;;;;;6185851;23;20075;-88
2023/01/18 10:45:55;;;;;;;10.10;6.07;;;1.20;99.40;;;;;;6186051;23;20032;-87
2023/01/18 10:48:29;;;;;;;9.70;5.97;;;1.30;99.30;;;;;;6207984;23;20037;-88
2023/01/18 10:51:02;;;;;;;7.77;5.10;;;1.40;99.20;;;;;;6191664;23;20028;-88
2023/01/18 10:53:35;;;;;;;9.57;5.67;;;1.30;99.20;;;;;;6217001;23;20024;-88
2023/01/18 10:56:02;;;;;;;7.47;5.53;;;1.30;99.30;;;;;;6191676;23;20040;-87
2023/01/18 10:58:42;;;;;;;7.53;5.13;;;1.30;99.30;;;;;;6216418;23;20021;-86
2023/01/18 11:01:34;;;;;;;11.37;6.57;;;1.30;99.30;;;;;;6242188;22;20043;-87
2023/01/18 11:04:06;;;;;;;19.08;7.30;;;1.40;99.30;;;;;;6218904;23;20020;-88
2023/01/18 11:06:48;;;;;;;11.38;6.53;;;1.40;99.20;;;;;;6199374;23;20028;-89
2023/01/18 11:09:46;;;;;;;11.07;6.53;;;1.50;99.10;;;;;;6199163;23;20020;-88
2023/01/18 11:12:46;;;;;;;12.73;7.97;;;1.50;99.00;;;;;;6219636;23;20400;-91
2023/01/18 11:15:54;;;;;;;9.97;6.17;;;1.60;98.90;;;;;;6201156;23;20020;-90
2023/01/18 11:19:45;;;;;;;9.40;6.00;;;1.60;98.80;;;;;;6130322;23;20018;-88
2023/01/18 11:22:35;;;;;;;9.50;5.67;;;1.60;98.70;;;;;;6104275;23;20013;-89
2023/01/18 11:25:50;;;;;;;10.67;6.00;;;1.70;98.60;;;;;;6129981;23;20029;-89
2023/01/18 11:28:28;;;;;;;9.03;5.80;;;1.70;98.60;;;;;;6096199;23;20018;-90
2023/01/18 11:31:11;;;;;;;12.23;6.93;;;1.70;98.50;;;;;;6136639;23;20018;-89
2023/01/18 11:33:56;;;;;;;9.07;5.73;;;1.80;98.50;;;;;;6104186;23;20018;-90
2023/01/18 11:36:45;;;;;;;8.93;5.40;;;1.90;98.40;;;;;;6142079;23;20363;-88
2023/01/18 11:39:32;;;;;;;10.73;5.10;;;1.80;98.40;;;;;;6192650;23;20013;-88
2023/01/18 11:42:21;;;;;;;7.13;4.97;;;1.80;98.40;;;;;;6191743;23;20024;-84
2023/01/18 11:45:14;;;;;;;10.43;6.40;;;1.80;98.40;;;;;;6216039;23;20025;-91
2023/01/18 11:47:57;;;;;;;13.70;7.17;;;1.90;98.40;;;;;;6241683;22;20056;-88
2023/01/18 11:50:51;;;;;;;10.70;6.30;;;2.00;98.20;;;;;;6223309;23;20021;-85
2023/01/18 11:53:30;;;;;;;11.53;6.70;;;2.10;98.10;;;;;;6194713;23;20020;-85
2023/01/18 11:56:19;;;;;;;11.10;6.60;;;2.10;97.90;;;;;;6214834;23;20063;-83
2023/01/18 11:58:48;;;;;;;10.83;6.73;;;2.20;97.90;;;;;;6215772;23;20051;-89
2023/01/18 12:01:25;;;;;;;14.10;8.07;;;2.20;97.80;;;;;;6201829;23;20017;-92
2023/01/18 12:04:16;;;;;;;13.90;7.73;;;2.30;97.50;;;;;;6203107;23;20017;-87
2023/01/18 12:07:11;;;;;;;12.32;7.80;;;2.40;97.30;;;;;;6229870;23;20024;-87
2023/01/18 12:09:51;;;;;;;11.87;6.70;;;2.40;97.20;;;;;;6242628;22;20039;-87
2023/01/18 12:12:36;;;;;;;10.43;6.80;;;2.40;97.30;;;;;;6190257;23;20017;-87
2023/01/18 12:15:21;;;;;;;11.17;6.07;;;2.50;97.20;;;;;;6239687;22;20024;-85
2023/01/18 12:18:26;;;;;;;10.68;6.53;;;2.50;97.20;;;;;;6238895;22;20091;-84
2023/01/18 12:21:02;;;;;;;12.35;8.25;;;2.50;97.10;;;;;;6214696;23;20055;-86
2023/01/18 12:24:06;;;;;;;13.48;7.28;;;2.60;96.90;;;;;;6239281;22;20390;-82
2023/01/18 12:26:56;;;;;;;14.98;7.47;;;2.60;96.80;;;;;;6239531;23;20332;-84
2023/01/18 12:29:42;;;;;;;10.82;7.35;;;2.60;96.80;;;;;;6214827;23;20025;-85
2023/01/18 12:32:12;;;;;;;10.25;6.78;;;2.70;96.70;;;;;;6214632;23;20017;-82
2023/01/18 12:34:41;;;;;;;10.77;7.15;;;2.70;96.70;;;;;;6214130;23;20435;-84
2023/01/18 12:37:34;;;;;;;10.77;6.80;;;2.70;96.60;;;;;;6240120;22;20067;-82
2023/01/18 12:40:18;;;;;;;10.18;6.97;;;2.80;96.60;;;;;;6163571;23;20082;-86
2023/01/18 12:42:53;;;;;;;14.55;7.63;;;2.80;96.60;;;;;;6189792;23;20029;-84
2023/01/18 12:45:38;;;;;;;13.10;7.30;;;2.90;96.50;;;;;;6239409;23;20063;-84
2023/01/18 12:48:14;;;;;;;13.32;8.10;;;2.90;96.30;;;;;;6203348;23;20328;-84
2023/01/18 12:50:45;;;;;;;9.50;6.85;;;3.00;96.30;;;;;;6189727;23;20020;-85
2023/01/18 12:53:22;;;;;;;10.65;7.30;;;3.00;96.30;;;;;;6213529;23;20016;-85
2023/01/18 12:55:52;;;;;;;10.45;6.60;;;3.10;96.20;;;;;;6239830;22;20067;-85
2023/01/18 12:58:24;;;;;;;8.30;5.82;;;3.10;96.10;;;;;;6215082;23;20012;-84
2023/01/18 13:01:01;;;;;;;8.60;5.50;;;3.10;96.00;;;;;;6215039;23;20090;-86
2023/01/18 13:03:34;;;;;;;8.80;5.70;;;3.20;95.90;;;;;;6214861;23;20024;-85
2023/01/18 13:06:02;;;;;;;9.50;5.28;;;3.10;95.90;;;;;;6239481;22;20044;-83
2023/01/18 13:08:47;;;;;;;7.95;5.38;;;3.20;96.00;;;;;;6214344;23;20021;-84
2023/01/18 13:11:24;;;;;;;8.93;5.18;;;3.20;96.00;;;;;;6189413;23;20455;-84
2023/01/18 13:14:16;;;;;;;9.85;5.88;;;3.20;95.90;;;;;;6214212;23;20322;-82
2023/01/18 13:16:56;;;;;;;9.60;4.83;;;3.30;95.90;;;;;;6204346;23;20032;-86
2023/01/18 13:19:35;;;;;;;8.90;5.95;;;3.20;95.90;;;;;;6214272;23;20095;-87
2023/01/18 13:22:24;;;;;;;9.27;5.43;;;3.30;95.90;;;;;;6214821;23;20350;-85
2023/01/18 13:25:10;;;;;;;8.85;5.45;;;3.30;95.90;;;;;;6214538;23;20091;-84
2023/01/18 13:27:37;;;;;;;9.82;5.90;;;3.30;95.60;;;;;;6240096;22;20447;-85
2023/01/18 13:30:15;;;;;;;11.32;6.00;;;3.40;95.30;;;;;;6164595;23;20028;-83
2023/01/18 13:32:44;;;;;;;6.88;4.78;;;3.40;95.20;;;;;;6213790;23;20017;-82
2023/01/18 13:35:16;;;;;;;10.77;5.10;;;3.40;95.20;;;;;;6189026;23;20021;-83
2023/01/18 13:37:51;;;;;;;8.45;5.13;;;3.50;95.30;;;;;;6214472;23;20024;-86
2023/01/18 13:41:00;;;;;;;9.93;5.22;;;3.50;95.20;;;;;;6168309;23;20017;-86
2023/01/18 13:43:36;;;;;;;9.95;5.25;;;3.50;95.10;;;;;;6135939;23;20832;-85
2023/01/18 13:46:21;;;;;;;10.15;6.05;;;3.50;95.20;;;;;;6207759;23;20099;-85
2023/01/18 13:49:19;;;;;;;10.65;5.50;;;3.50;95.00;;;;;;6216752;23;20472;-85
2023/01/18 13:52:30;;;;;;;9.77;5.05;;;3.50;95.00;;;;;;6240784;22;20439;-85
2023/01/18 13:55:01;;;;;;;8.32;4.57;;;3.50;95.10;;;;;;6215427;23;20083;-81
2023/01/18 13:57:33;;;;;;;10.70;4.70;;;3.50;95.00;;;;;;6190703;23;20443;-81
2023/01/18 14:00:01;;;;;;;6.15;4.40;;;3.50;95.00;;;;;;6215395;23;20017;-80